AirNav   TITAN Aviation Fuels
 
 600 users online  

3NR4 Crabbe Airport
Elizabeth City, North Carolina, USA

GOING TO ELIZABETH CITY?


FAA INFORMATION EFFECTIVE 03 NOVEMBER 2022

Location

FAA Identifier: 3NR4
Lat/Long: 36-16-51.0000N 076-20-12.0000W
36-16.850000N 076-20.200000W
36.2808333,-76.3366667
(estimated)
Elevation: 15 ft. / 5 m (estimated)
From city: 10 miles W of ELIZABETH CITY, NC
Time zone: UTC -5 (UTC -4 during Daylight Saving Time)
Zip code: 27909

Airport Operations

Airport use: Private use. Permission required prior to landing
Activation date: 01/2013
Control tower: no
ARTCC: WASHINGTON CENTER
FSS: RALEIGH FLIGHT SERVICE STATION
Attendance: UNATNDD
Wind indicator: yes
Segmented circle: no

Airport Communications

WX ASOS at ECG (8 nm E): 124.375 (252-338-4750)
WX AWOS-3 at ONX (17 nm NE): 119.775 (252-453-8939)
WX AWOS-3 at EDE (19 nm SW): 118.275 (252-482-0757)

Nearby radio navigation aids

VOR radial/distance  VOR name  Freq  Var
ECGr287/7.9ELIZABETH CITY VOR/DME112.5007W
CVIr111/26.4COFIELD VORTAC114.6009W
ORFr197/37.2NORFOLK VORTAC116.9007W
RBXr313/37.8WRIGHT BROTHERS VOR/DME111.6008W

 
NDB name  Hdg/Dist  Freq  Var  ID
WOODVILLE310/2.225410WLLW .-.. .-.. .--
MANTEO314/38.137009WMQI -- --.- ..

Airport Services

Runway Information

Runway 1/19

Dimensions: 3100 x 125 ft. / 945 x 38 m
Surface: turf, in good condition
RUNWAY 1  RUNWAY 19
Traffic pattern: leftleft

Airport Ownership and Management from official FAA records

Ownership: Privately-owned
CRABBE AVIATION, LLC; C/O DIVERSIFIED APPLICATIONS, LLC; ATTN: CATHERINE PENDLETON
Owner: CRABBE AVIATION, LLC
255 SCHILLING BLVD, STE 210
COLLIERVILLE, TN 38017
Phone 901-537-8766
Manager: JEFF ELMORE
255 SCHILLING BLVD, STE 210
COLLIERVILLE, TN 38017
Phone 901-537-8537

Airport Operational Statistics

Aircraft based on the field: 2
Single engine airplanes: 1
Helicopters: 1
    

Additional Remarks

HEAVY AGRICULTURAL ACFT OPNS.
FOR CD CTC NORFOLK APCH AT 757-464-0757.

Instrument Procedures

There are no published instrument procedures at 3NR4.

Some nearby airports with instrument procedures:

KECG - Elizabeth City Coast Guard Air Station/Regional Airport (8 nm E)
KONX - Currituck County Regional Airport (17 nm NE)
KEDE - Northeastern Regional Airport (19 nm SW)
KCPK - Chesapeake Regional Airport (23 nm N)
KSFQ - Suffolk Executive Airport (27 nm NW)
 
Loc | Ops | Rwys | IFR | FBO | Links
Com | Nav | Svcs | Stats | Notes
Aerial photo
No photo
 
Airport distance calculator
Flying to Crabbe Airport? Find the distance to fly.

From to 3NR4

Sunrise and sunset
Times for 28-Nov-2022
 Local
(UTC-5)
 Zulu
(UTC)
Morning civil twilight06:2811:28
Sunrise06:5611:56
Sunset16:5021:50
Evening civil twilight17:1822:18

Current date and time
Zulu (UTC)  28-Nov-2022 11:27:05
Local (UTC-5)  28-Nov-2022 06:27:05
 
METAR
KECG 
7nm E 
281054Z AUTO 22008KT 10SM CLR 12/08 A2973 RMK AO2 SLP067 T01170078
KONX 
17nm NE 
281115Z AUTO 22006KT 10SM CLR 13/07 A2973 RMK AO2 T01250065
KEDE 
19nm SW 
281115Z AUTO 25008KT 10SM CLR 15/11 A2976 RMK AO2 T01450110
TAF
KECG 
7nm E 
280520Z 2806/2906 23010KT P6SM SKC FM281300 27010KT P6SM SCT060 FM281600 29012G20KT P6SM BKN050
NOTAMs
Click for the latest NOTAMs
NOTAMs are issued by the DoD/FAA and will open in a separate window not controlled by AirNav.

 

 
 

Would you like to see your business listed on this page?

 If your business provides an interesting product or service to pilots, flight crews, aircraft, or users of the Crabbe Airport, you should consider listing it here.  To start the listing process, click on the button below
 
Add a business
 

Other Pages about Crabbe Airport

Update a link
 
Copyright © AirNav, LLC. All rights reserved. Privacy Policy  Contact